Thursday, June 21, 2018, 6:30 AM EDT
Back to Local

KNUI, Knui Webster Field Annex

Location: Saint Inigoes, MD, United States Lat: 38.15
Local Time: 6:30 AM EDT (10:30 GMT) Lon: -76.417
Time Zone: US/Eastern Elev: 19 ft

Show me the last for .
Show Decoded

2018-06-21 04:53 METAR KNUI 210853Z AUTO 22003KT CLR 23/22 A2973 RMK AO2 SLP065 T02280217 58009 $
                 =
2018-06-21 04:05 METAR KNUI 210805Z AUTO 25004KT FEW009 SCT060 23/23 A2972 RMK AO2 T02330228 $ =
2018-06-21 03:53 METAR KNUI 210753Z AUTO 25006KT BKN009 24/23 A2973 RMK AO2 SLP066 T02390228 $ =
2018-06-21 03:43 METAR KNUI 210743Z AUTO 25005KT OVC009 24/23 A2973 RMK AO2 T02390228 $ =
2018-06-21 02:53 METAR KNUI 210653Z AUTO 25008KT BKN010 BKN014 24/23 A2975 RMK AO2 SLP075
                 T02390228 $ =
2018-06-21 01:53 METAR KNUI 210553Z AUTO 26006KT CLR 24/23 A2976 RMK AO2 SLP078 60000 T02390228
                 10250 20239 58007 $ =
2018-06-21 00:53 METAR KNUI 210453Z AUTO 23008KT FEW110 24/23 A2978 RMK AO2 SLP084 T02440233
                 403170222 $ =
2018-06-20 23:53 METAR KNUI 210353Z AUTO 23006KT CLR 25/23 A2978 RMK AO2 SLP083 T02500233 $ =
2018-06-20 22:53 METAR KNUI 210253Z AUTO 20006KT CLR 24/24 A2978 RMK AO2 RAB39E48 SLP085 P0000
                 60000 T02440239 50004 $ =
2018-06-20 21:53 METAR KNUI 210153Z AUTO 26006KT FEW030 SCT050 BKN090 25/24 A2982 RMK AO2 SLP097
                 T02500239 $ =
2018-06-20 20:53 METAR KNUI 210053Z AUTO 00000KT SCT120 24/23 A2976 RMK AO2 RAE13 SLP075 P0000
                 T02390228 $ =
2018-06-20 19:53 METAR KNUI 202353Z AUTO 18003KT -RA SCT110 25/23 A2977 RMK AO2 TSE05 SLP082
                 P0000 60000 T02500228 10317 20250 50004 $ =
2018-06-20 19:11 METAR KNUI 202311Z AUTO 18005KT -RA FEW040 SCT085 BKN110 26/24 A2977 RMK AO2
                 TSE05 P0000 T02560239 $ =
2018-06-20 18:53 METAR KNUI 202253Z AUTO 17007KT -TSRA SCT043 SCT050 BKN070 26/22 A2978 RMK AO2
                 RAB31 TSE2157B14E29B41 SLP083 P0000 T02610222 $ =
2018-06-20 18:35 METAR KNUI 202235Z AUTO 15005KT -RA FEW070 FEW085 FEW120 27/22 A2977 RMK AO2
                 RAB31 TSE2157B14E29 P0000 T02720217 $ =
2018-06-20 18:20 METAR KNUI 202220Z AUTO 12005KT TS CLR 28/21 A2976 RMK AO2 TSE2157B14 T02780211
                 $ =
2018-06-20 18:03 METAR KNUI 202203Z AUTO 14004KT CLR 28/21 A2977 RMK AO2 TSE2157 T02780206 $ =
2018-06-20 17:53 METAR KNUI 202153Z AUTO 12004KT TS CLR 28/22 A2977 RMK AO2 TSB42 SLP080
                 T02830217 $ =
2018-06-20 17:48 METAR KNUI 202148Z AUTO 11006KT TS CLR 28/22 A2976 RMK AO2 TSB42 $ =
2018-06-20 16:53 METAR KNUI 202053Z AUTO 11004KT CLR 29/22 A2978 RMK AO2 SLP084 T02890222 56015 $
                 =
2018-06-20 15:53 METAR KNUI 201953Z AUTO 12004KT FEW040 30/22 A2979 RMK AO2 SLP086 T03000217 $ =
2018-06-20 14:53 METAR KNUI 201853Z AUTO 19004KT CLR 31/21 A2981 RMK AO2 SLP093 T03110211 $ =
2018-06-20 13:53 METAR KNUI 201753Z AUTO VRB03KT CLR 31/17 A2983 RMK AO2 SLP099 T03060172 10306
                 20239 58014 $ =
2018-06-20 12:53 METAR KNUI 201653Z AUTO 22006KT FEW070 29/19 A2984 RMK AO2 SLP104 T02940189 $ =
2018-06-20 11:53 METAR KNUI 201553Z AUTO 24005KT CLR 28/22 A2986 RMK AO2 SLP112 T02830222 $ =
2018-06-20 10:53 METAR KNUI 201453Z AUTO 23006KT SCT050 27/22 A2987 RMK AO2 SLP113 T02720222
                 50001 $ =
2018-06-20 09:53 METAR KNUI 201353Z AUTO 00000KT CLR 27/22 A2987 RMK AO2 SLP114 T02720222 $ =
2018-06-20 08:53 METAR KNUI 201253Z AUTO VRB03KT BKN065 26/21 A2987 RMK AO2 SLP114 T02560206 $ =
2018-06-20 07:53 METAR KNUI 201153Z AUTO 02004KT 9SM FEW065 24/21 A2987 RMK AO2 SLP112 6////
                 7//// T02390211 10244 20222 52008 =
2018-06-20 06:53 METAR KNUI 201053Z AUTO 00000KT 9SM BKN065 23/21 A2986 RMK AO2 SLP110 T02330206
                 PNO $ =

Support USWX by starting your Amazon purchase here.